YBC weather

Baie Comeau Airport
Baie-Comeau, Quebec, Canada

Public forecast

Using degrees Celsius for public forecast. Weather courtesy of forecast.io.

METAR (pilot weather report)

Retrieved 2019/01/17 17:00 UTC (59 minutes ago):

CYBC 171700Z AUTO 26013KT 9SM CLR M22/M31 A3026 RMK SLP250

TAF (pilot weather forecast)

Retrieved 2019/01/17 14:00 UTC (4 hours ago):

TAF CYBC 171338Z 1714/1802 28010G20KT P6SM SKC BECMG 1717/1719 28008KT RMK FCST BASED ON AUTO OBS. NXT FCST BY 172000Z